Time;durP1;ratioP1;P1;durP2;ratioP2;P2;SDS_P1;SDS_P2;PMS_P1;PMS_P2;Temp;Humidity;BMP_temperature;BMP_pressure;BME280_temperature;BME280_humidity;BME280_pressure;Samples;Min_cycle;Max_cycle;Signal;HPM_P1;HPM_P2
2021/12/04 00:00:46;;;;;;;19.35;13.88;;;3.60;99.90;;;;;;5028372;28;20496;-53
2021/12/04 00:03:12;;;;;;;19.92;14.98;;;3.60;99.90;;;;;;5029704;28;20022;-53
2021/12/04 00:05:40;;;;;;;24.60;16.05;;;3.60;99.90;;;;;;5029805;28;20080;-53
2021/12/04 00:08:06;;;;;;;20.13;14.82;;;3.60;99.90;;;;;;5030073;28;20025;-55
2021/12/04 00:10:32;;;;;;;18.70;14.05;;;3.60;99.90;;;;;;5029815;28;20033;-56
2021/12/04 00:12:57;;;;;;;18.90;14.65;;;3.60;99.90;;;;;;5029904;28;20087;-55
2021/12/04 00:15:23;;;;;;;21.50;15.45;;;3.60;99.90;;;;;;5029472;28;20393;-54
2021/12/04 00:17:48;;;;;;;20.08;13.80;;;3.60;99.90;;;;;;5029588;28;20021;-52
2021/12/04 00:20:14;;;;;;;19.27;14.77;;;3.60;99.90;;;;;;5029845;28;20064;-55
2021/12/04 00:22:40;;;;;;;21.10;15.15;;;3.60;99.90;;;;;;5029442;28;20026;-54
2021/12/04 00:25:07;;;;;;;22.60;15.88;;;3.60;99.90;;;;;;5029671;28;20090;-53
2021/12/04 00:27:33;;;;;;;20.30;14.90;;;3.60;99.90;;;;;;5029605;28;20072;-56
2021/12/04 00:29:58;;;;;;;22.38;16.20;;;3.60;99.90;;;;;;5029615;28;20053;-52
2021/12/04 00:35:00;;;;;;;21.05;15.80;;;3.60;99.90;;;;;;5029387;28;20397;-53
2021/12/04 00:43:14;;;;;;;19.60;14.68;;;3.60;99.90;;;;;;5029732;28;20095;-54
2021/12/04 00:51:15;;;;;;;22.55;17.38;;;3.70;99.90;;;;;;5029429;28;20040;-55
2021/12/04 00:53:40;;;;;;;26.73;17.60;;;3.70;99.90;;;;;;5028871;28;20050;-57
2021/12/04 00:56:06;;;;;;;27.98;18.58;;;3.70;99.90;;;;;;5030062;28;20080;-55
2021/12/04 00:58:32;;;;;;;23.95;17.52;;;3.70;99.90;;;;;;5047143;28;20025;-53
2021/12/04 01:00:58;;;;;;;27.52;18.35;;;3.60;99.90;;;;;;5028973;28;20036;-57
2021/12/04 01:03:24;;;;;;;27.02;19.60;;;3.60;99.90;;;;;;5029165;28;20026;-53
2021/12/04 01:05:49;;;;;;;30.35;19.13;;;3.60;99.90;;;;;;5046358;28;20383;-57
2021/12/04 01:08:15;;;;;;;31.45;19.27;;;3.60;99.90;;;;;;5045499;28;20021;-58
2021/12/04 01:10:41;;;;;;;27.98;18.20;;;3.70;99.90;;;;;;5029826;28;20064;-56
2021/12/04 01:13:11;;;;;;;31.13;20.55;;;3.70;99.90;;;;;;5031999;28;20128;-55
2021/12/04 01:15:41;;;;;;;30.60;20.13;;;3.70;99.90;;;;;;5046084;28;20104;-57
2021/12/04 01:18:07;;;;;;;26.98;19.88;;;3.70;99.90;;;;;;5047547;28;20032;-57
2021/12/04 01:20:32;;;;;;;31.75;19.63;;;3.70;99.90;;;;;;5032899;28;20025;-54
2021/12/04 01:22:58;;;;;;;30.73;19.83;;;3.70;99.90;;;;;;5040718;28;20021;-53
2021/12/04 01:25:24;;;;;;;27.23;20.08;;;3.70;99.90;;;;;;5045198;28;20024;-54
2021/12/04 01:27:49;;;;;;;31.48;20.23;;;3.70;99.90;;;;;;5031947;28;20083;-53
2021/12/04 01:30:15;;;;;;;26.45;19.02;;;3.70;99.90;;;;;;5031735;28;20401;-54
2021/12/04 01:32:40;;;;;;;28.73;20.42;;;3.70;99.90;;;;;;5032887;28;20017;-56
2021/12/04 01:35:06;;;;;;;29.55;19.40;;;3.70;99.90;;;;;;5032066;28;20021;-54
2021/12/04 01:37:32;;;;;;;26.90;18.98;;;3.70;99.90;;;;;;5031492;28;20025;-56
2021/12/04 01:39:57;;;;;;;26.45;19.10;;;3.70;99.90;;;;;;5031984;28;20028;-54
2021/12/04 01:42:23;;;;;;;27.52;19.17;;;3.70;99.90;;;;;;5030833;28;20022;-53
2021/12/04 01:44:50;;;;;;;31.13;20.48;;;3.70;99.90;;;;;;5049759;28;20040;-55
2021/12/04 01:47:20;;;;;;;30.92;20.67;;;3.70;99.90;;;;;;5046515;28;20558;-57
2021/12/04 01:49:48;;;;;;;30.83;20.60;;;3.70;99.90;;;;;;5041661;28;20088;-55
2021/12/04 01:52:17;;;;;;;30.08;19.98;;;3.70;99.90;;;;;;5025978;28;20382;-55
2021/12/04 01:54:44;;;;;;;29.25;19.80;;;3.70;99.90;;;;;;5031467;28;20026;-54
2021/12/04 01:57:11;;;;;;;27.27;19.38;;;3.70;99.90;;;;;;5048443;28;20056;-55
2021/12/04 01:59:37;;;;;;;29.50;18.70;;;3.70;99.90;;;;;;5027148;28;20029;-55
2021/12/04 02:02:03;;;;;;;31.98;20.33;;;3.70;99.90;;;;;;5041412;28;20554;-55
2021/12/04 02:04:29;;;;;;;29.23;19.35;;;3.80;99.90;;;;;;5030445;28;20029;-56
2021/12/04 02:06:55;;;;;;;28.58;19.98;;;3.70;99.90;;;;;;5031812;28;20029;-53
2021/12/04 02:09:21;;;;;;;26.20;17.80;;;3.70;99.90;;;;;;5030512;28;20678;-56
2021/12/04 02:11:47;;;;;;;27.10;19.73;;;3.70;99.90;;;;;;5031820;28;20030;-54
2021/12/04 02:14:13;;;;;;;26.90;18.05;;;3.70;99.90;;;;;;5042646;28;20477;-56
2021/12/04 02:16:39;;;;;;;30.40;19.25;;;3.70;99.90;;;;;;5045816;28;20017;-55
2021/12/04 02:19:04;;;;;;;26.92;17.92;;;3.70;99.90;;;;;;5031083;28;20512;-54
2021/12/04 02:21:31;;;;;;;28.42;19.50;;;3.70;99.90;;;;;;5042890;28;20163;-55
2021/12/04 02:23:57;;;;;;;29.73;17.80;;;3.80;99.90;;;;;;5048086;28;20116;-54
2021/12/04 02:26:25;;;;;;;24.90;18.27;;;3.70;99.90;;;;;;5049336;28;20694;-56
2021/12/04 02:28:51;;;;;;;29.67;18.75;;;3.70;99.90;;;;;;5050502;28;20170;-55
2021/12/04 02:31:17;;;;;;;25.52;18.05;;;3.70;99.90;;;;;;5051313;28;20539;-55
2021/12/04 02:33:43;;;;;;;28.27;18.65;;;3.70;99.90;;;;;;5049086;28;20056;-53
2021/12/04 02:36:08;;;;;;;26.20;18.10;;;3.70;99.90;;;;;;5048845;28;20057;-55
2021/12/04 02:38:35;;;;;;;29.55;18.08;;;3.70;99.90;;;;;;5049802;28;20440;-55
2021/12/04 02:41:01;;;;;;;31.50;18.85;;;3.70;99.90;;;;;;5052963;28;20029;-55
2021/12/04 02:43:32;;;;;;;26.83;17.70;;;3.70;99.90;;;;;;5030211;28;20096;-55
2021/12/04 02:45:57;;;;;;;28.92;18.10;;;3.70;99.90;;;;;;5042097;28;20025;-54
2021/12/04 02:48:23;;;;;;;30.08;19.77;;;3.70;99.90;;;;;;5034731;28;20025;-55
2021/12/04 02:50:49;;;;;;;29.70;18.00;;;3.70;99.90;;;;;;5033368;28;20551;-54
2021/12/04 02:53:15;;;;;;;28.08;18.10;;;3.60;99.90;;;;;;5048311;28;20033;-54
2021/12/04 02:55:41;;;;;;;28.02;17.73;;;3.60;99.90;;;;;;5032794;28;20029;-55
2021/12/04 02:58:07;;;;;;;30.58;17.90;;;3.60;99.90;;;;;;5029910;28;20033;-54
2021/12/04 03:00:33;;;;;;;26.35;18.35;;;3.60;99.90;;;;;;5034773;28;20179;-53
2021/12/04 03:02:59;;;;;;;28.05;17.27;;;3.70;99.90;;;;;;5043745;28;20029;-54
2021/12/04 03:05:27;;;;;;;27.10;17.30;;;3.70;99.90;;;;;;5028522;28;20120;-55
2021/12/04 03:07:55;;;;;;;24.25;17.17;;;3.60;99.90;;;;;;5028587;28;20057;-55
2021/12/04 03:10:21;;;;;;;28.08;16.98;;;3.70;99.90;;;;;;5028637;28;20075;-54
2021/12/04 03:12:47;;;;;;;22.98;17.10;;;3.70;99.90;;;;;;5015009;28;20039;-55
2021/12/04 03:15:13;;;;;;;27.77;17.00;;;3.70;99.90;;;;;;5028581;28;20025;-54
2021/12/04 03:17:39;;;;;;;24.90;16.52;;;3.70;99.90;;;;;;5010638;28;20025;-56
2021/12/04 03:20:06;;;;;;;29.10;16.52;;;3.70;99.90;;;;;;5023178;23;20041;-77
2021/12/04 03:22:32;;;;;;;25.38;16.33;;;3.70;99.90;;;;;;5013832;28;20033;-79
2021/12/04 03:24:58;;;;;;;25.30;16.92;;;3.70;99.90;;;;;;5028756;28;20033;-79
2021/12/04 03:27:25;;;;;;;24.30;16.50;;;3.70;99.90;;;;;;5031795;28;20021;-79
2021/12/04 03:30:04;;;;;;;24.83;16.85;;;3.70;99.90;;;;;;4996784;28;20406;-79
2021/12/04 03:45:28;;;;;;;25.10;16.60;;;3.70;99.90;;;;;;5007023;28;20053;-48
2021/12/04 03:48:03;;;;;;;26.02;17.40;;;3.60;99.90;;;;;;5008889;28;20096;-53
2021/12/04 03:50:28;;;;;;;26.17;17.35;;;3.60;99.90;;;;;;5005938;28;20510;-55
2021/12/04 03:52:54;;;;;;;26.60;17.67;;;3.60;99.90;;;;;;5007442;28;20088;-48
2021/12/04 03:55:19;;;;;;;29.00;17.15;;;3.60;99.90;;;;;;4988182;28;20050;-47
2021/12/04 03:57:45;;;;;;;26.95;17.02;;;3.70;99.90;;;;;;4989307;28;20046;-52
2021/12/04 04:00:13;;;;;;;27.38;17.75;;;3.70;99.90;;;;;;5007048;28;20172;-54
2021/12/04 04:02:39;;;;;;;27.77;18.23;;;3.60;99.90;;;;;;4990008;28;20069;-51
2021/12/04 04:05:05;;;;;;;25.25;16.80;;;3.60;99.90;;;;;;4992077;28;20038;-54
2021/12/04 04:07:31;;;;;;;25.40;17.83;;;3.60;99.90;;;;;;4987905;28;20077;-51
2021/12/04 04:09:57;;;;;;;39.72;19.58;;;3.70;99.90;;;;;;4989529;28;20062;-50
2021/12/04 04:12:22;;;;;;;28.40;17.80;;;3.70;99.90;;;;;;4989926;28;20044;-47
2021/12/04 04:14:48;;;;;;;27.00;17.55;;;3.70;99.90;;;;;;4989453;28;20027;-50
2021/12/04 04:17:13;;;;;;;35.22;18.73;;;3.70;99.90;;;;;;4988853;28;20034;-53
2021/12/04 04:19:39;;;;;;;27.58;19.60;;;3.70;99.90;;;;;;4988532;28;20114;-49
2021/12/04 04:22:05;;;;;;;31.02;19.50;;;3.70;99.90;;;;;;4989283;28;20034;-48
2021/12/04 04:24:32;;;;;;;32.53;19.85;;;3.70;99.90;;;;;;4989318;28;20037;-51
2021/12/04 04:26:58;;;;;;;29.98;18.95;;;3.70;99.90;;;;;;4989114;28;20505;-53
2021/12/04 04:29:24;;;;;;;29.67;19.45;;;3.70;99.90;;;;;;4988711;28;20026;-50
2021/12/04 04:31:52;;;;;;;34.72;20.90;;;3.70;99.90;;;;;;4988852;28;20030;-51
2021/12/04 04:34:25;;;;;;;33.95;19.02;;;3.70;99.90;;;;;;4988768;28;20026;-54
2021/12/04 04:39:58;;;;;;;33.78;20.48;;;3.70;99.90;;;;;;4988707;28;20049;-51
2021/12/04 05:01:19;;;;;;;32.80;20.50;;;3.60;99.90;;;;;;4992422;28;20109;-49
2021/12/04 05:12:46;;;;;;;36.28;22.20;;;3.60;99.90;;;;;;4992273;28;20126;-53
2021/12/04 05:14:41;;;;;;;35.40;22.75;;;3.70;99.90;;;;;;4986602;28;20073;-52
2021/12/04 05:17:11;;;;;;;33.65;21.55;;;3.60;99.90;;;;;;4992605;28;20029;-50
2021/12/04 05:19:42;;;;;;;35.10;22.35;;;3.60;99.90;;;;;;4991882;28;20018;-48
2021/12/04 05:22:11;;;;;;;38.22;22.38;;;3.70;99.90;;;;;;4991996;28;20030;-47
2021/12/04 05:24:37;;;;;;;46.45;25.70;;;3.60;99.90;;;;;;4992201;28;20042;-48
2021/12/04 05:27:03;;;;;;;36.53;23.10;;;3.60;99.90;;;;;;4992279;28;20104;-49
2021/12/04 05:29:28;;;;;;;33.03;22.58;;;3.60;99.90;;;;;;4990667;28;20411;-48
2021/12/04 05:31:54;;;;;;;35.67;22.73;;;3.60;99.90;;;;;;4992216;28;20038;-50
2021/12/04 05:34:20;;;;;;;35.95;23.80;;;3.60;99.90;;;;;;4990210;28;20061;-49
2021/12/04 05:36:46;;;;;;;35.15;22.58;;;3.60;99.90;;;;;;4992497;28;20022;-55
2021/12/04 05:39:12;;;;;;;39.40;22.17;;;3.60;99.90;;;;;;4991909;28;20030;-48
2021/12/04 05:41:37;;;;;;;32.47;21.08;;;3.60;99.90;;;;;;4991858;28;20042;-48
2021/12/04 05:44:06;;;;;;;46.30;24.13;;;3.60;99.90;;;;;;4991758;28;20522;-50
2021/12/04 05:46:40;;;;;;;38.92;22.63;;;3.60;99.90;;;;;;4991554;28;20077;-52
2021/12/04 05:49:20;;;;;;;40.45;22.17;;;3.60;99.90;;;;;;4991278;28;20042;-48
2021/12/04 05:56:50;;;;;;;35.63;23.38;;;3.60;99.90;;;;;;4991822;28;20037;-51
2021/12/04 05:59:16;;;;;;;37.88;22.38;;;3.60;99.90;;;;;;4989828;28;20034;-49
2021/12/04 06:01:42;;;;;;;38.75;22.70;;;3.60;99.90;;;;;;4991625;28;20113;-48
2021/12/04 06:04:08;;;;;;;32.80;22.25;;;3.60;99.90;;;;;;4991711;28;20037;-51
2021/12/04 06:06:33;;;;;;;35.53;20.33;;;3.60;99.90;;;;;;4991648;28;20042;-50
2021/12/04 06:08:59;;;;;;;36.60;21.67;;;3.60;99.90;;;;;;4991433;28;20042;-54
2021/12/04 06:11:24;;;;;;;36.03;22.67;;;3.60;99.90;;;;;;4990980;28;20029;-51
2021/12/04 06:13:50;;;;;;;31.85;21.83;;;3.60;99.90;;;;;;4991300;28;20026;-48
2021/12/04 06:16:16;;;;;;;37.85;22.75;;;3.60;99.90;;;;;;4991772;28;20022;-50
2021/12/04 06:18:46;;;;;;;35.53;22.60;;;3.60;99.90;;;;;;4990870;28;20410;-47
2021/12/04 06:23:56;;;;;;;35.58;22.70;;;3.60;99.90;;;;;;4991237;28;20493;-49
2021/12/04 06:26:21;;;;;;;34.40;22.67;;;3.60;99.90;;;;;;4990851;28;20042;-52
2021/12/04 06:28:47;;;;;;;35.45;21.70;;;3.60;99.90;;;;;;4990822;28;20044;-54
2021/12/04 06:31:14;;;;;;;36.15;22.45;;;3.60;99.90;;;;;;4991230;28;20026;-50
2021/12/04 06:33:40;;;;;;;32.28;20.42;;;3.60;99.90;;;;;;4990902;28;20038;-51
2021/12/04 06:36:07;;;;;;;36.42;21.05;;;3.60;99.90;;;;;;4990991;28;20031;-48
2021/12/04 06:38:33;;;;;;;40.65;22.70;;;3.60;99.90;;;;;;4990804;28;20596;-49
2021/12/04 06:40:59;;;;;;;34.95;22.55;;;3.60;99.90;;;;;;4990992;28;20030;-47
2021/12/04 06:43:25;;;;;;;37.22;21.35;;;3.60;99.90;;;;;;4990694;28;20707;-47
2021/12/04 06:46:01;;;;;;;34.55;22.45;;;3.60;99.90;;;;;;4990993;28;20626;-50
2021/12/04 06:48:37;;;;;;;;;;;3.60;99.90;;;;;;4989231;28;20022;-47
2021/12/04 06:51:16;;;;;;;35.33;22.05;;;3.60;99.90;;;;;;4990477;28;19956;-49
2021/12/04 06:53:47;;;;;;;38.22;20.90;;;3.60;99.90;;;;;;4990686;28;20032;-49
2021/12/04 06:56:15;;;;;;;35.75;22.52;;;3.60;99.90;;;;;;4991029;28;20045;-48
2021/12/04 06:58:41;;;;;;;34.08;20.88;;;3.60;99.90;;;;;;4990298;28;20406;-51
2021/12/04 07:01:10;;;;;;;36.30;22.23;;;3.50;99.90;;;;;;4990129;28;20023;-55
2021/12/04 07:03:36;;;;;;;31.33;20.48;;;3.50;99.90;;;;;;4990415;28;20027;-49
2021/12/04 07:06:02;;;;;;;36.90;23.02;;;3.50;99.90;;;;;;4990201;28;20135;-49
2021/12/04 07:08:27;;;;;;;34.60;20.17;;;3.50;99.90;;;;;;4988884;28;20125;-48
2021/12/04 07:10:53;;;;;;;32.90;21.17;;;3.50;99.90;;;;;;4990075;28;20085;-48
2021/12/04 07:13:19;;;;;;;33.58;19.88;;;3.50;99.90;;;;;;4990359;28;20026;-51
2021/12/04 07:15:46;;;;;;;32.90;20.40;;;3.50;99.90;;;;;;4989900;28;20088;-48
2021/12/04 07:18:12;;;;;;;28.98;18.63;;;3.50;99.90;;;;;;4988880;28;20034;-51
2021/12/04 07:20:37;;;;;;;31.30;20.00;;;3.50;99.90;;;;;;4989759;28;20034;-50
2021/12/04 07:23:03;;;;;;;32.97;20.00;;;3.50;99.90;;;;;;4989419;28;20110;-50
2021/12/04 07:25:29;;;;;;;30.88;18.20;;;3.50;99.90;;;;;;4989562;28;20038;-52
2021/12/04 07:27:55;;;;;;;28.77;19.20;;;3.50;99.90;;;;;;4989559;28;20387;-55
2021/12/04 07:30:22;;;;;;;27.98;18.23;;;3.50;99.90;;;;;;4989409;28;20092;-52
2021/12/04 07:32:48;;;;;;;30.10;19.20;;;3.50;99.90;;;;;;4989263;28;20038;-50
2021/12/04 07:35:14;;;;;;;29.48;18.05;;;3.50;99.90;;;;;;4989132;28;20022;-49
2021/12/04 07:37:40;;;;;;;29.67;17.77;;;3.50;99.90;;;;;;4989185;28;20034;-49
2021/12/04 07:40:07;;;;;;;27.88;17.80;;;3.50;99.90;;;;;;4989531;28;20037;-49
2021/12/04 07:42:33;;;;;;;27.88;17.83;;;3.50;99.90;;;;;;4988714;28;20038;-49
2021/12/04 07:44:59;;;;;;;29.73;20.00;;;3.50;99.90;;;;;;4988808;28;20034;-49
2021/12/04 07:47:26;;;;;;;26.27;17.92;;;3.50;99.90;;;;;;4989783;28;20560;-50
2021/12/04 07:49:52;;;;;;;24.58;16.10;;;3.50;99.90;;;;;;4989231;28;20628;-49
2021/12/04 07:52:17;;;;;;;24.38;15.73;;;3.50;99.90;;;;;;4989956;28;20030;-51
2021/12/04 07:54:43;;;;;;;30.73;17.15;;;3.50;99.90;;;;;;4988257;28;20022;-49
2021/12/04 07:57:08;;;;;;;28.40;17.90;;;3.50;99.90;;;;;;4989580;28;20032;-48
2021/12/04 07:59:34;;;;;;;27.45;17.80;;;3.50;99.90;;;;;;4989583;28;20037;-51
2021/12/04 08:02:00;;;;;;;27.13;16.27;;;3.50;99.90;;;;;;4989515;28;20491;-55
2021/12/04 08:04:26;;;;;;;25.08;17.05;;;3.50;99.90;;;;;;4989260;28;20037;-47
2021/12/04 08:06:53;;;;;;;26.50;16.92;;;3.50;99.90;;;;;;4989730;28;20053;-48
2021/12/04 08:09:19;;;;;;;24.92;16.65;;;3.50;99.90;;;;;;4989560;28;20109;-50
2021/12/04 08:11:46;;;;;;;26.63;17.63;;;3.50;99.90;;;;;;4989672;28;20105;-57
2021/12/04 08:14:12;;;;;;;23.83;15.50;;;3.50;99.90;;;;;;4989075;28;20027;-50
2021/12/04 08:16:38;;;;;;;24.33;16.90;;;3.50;99.90;;;;;;4989634;28;20391;-49
2021/12/04 08:19:04;;;;;;;26.08;17.00;;;3.50;99.90;;;;;;4989196;28;20080;-49
2021/12/04 08:21:30;;;;;;;26.75;18.08;;;3.60;99.90;;;;;;4989476;28;20030;-49
2021/12/04 08:23:56;;;;;;;21.25;16.38;;;3.60;99.90;;;;;;4988567;28;20030;-49
2021/12/04 08:26:22;;;;;;;23.15;16.10;;;3.60;99.90;;;;;;4988720;28;20482;-51
2021/12/04 08:28:48;;;;;;;23.35;16.88;;;3.60;99.90;;;;;;4988752;28;20045;-54
2021/12/04 08:31:14;;;;;;;27.38;17.38;;;3.60;99.90;;;;;;4988847;28;20035;-53
2021/12/04 08:33:39;;;;;;;24.38;15.82;;;3.60;99.90;;;;;;4988870;28;20092;-57
2021/12/04 08:36:05;;;;;;;24.48;16.77;;;3.70;99.90;;;;;;4989295;28;20541;-52
2021/12/04 08:38:32;;;;;;;26.20;16.67;;;3.60;99.90;;;;;;4988853;28;20045;-55
2021/12/04 08:40:59;;;;;;;22.50;16.67;;;3.60;99.90;;;;;;4988754;28;20053;-49
2021/12/04 08:43:25;;;;;;;26.42;16.25;;;3.60;99.90;;;;;;4988509;28;20158;-48
2021/12/04 08:45:51;;;;;;;26.98;17.55;;;3.70;99.90;;;;;;4991167;28;20109;-48
2021/12/04 08:48:16;;;;;;;24.17;16.17;;;3.70;99.90;;;;;;4988156;28;20403;-49
2021/12/04 08:50:42;;;;;;;26.88;17.05;;;3.70;99.90;;;;;;4988488;28;20049;-52
2021/12/04 08:53:09;;;;;;;27.00;16.38;;;3.70;99.90;;;;;;4988356;28;20042;-49
2021/12/04 08:55:38;;;;;;;23.08;15.80;;;3.70;99.90;;;;;;4988370;28;20060;-50
2021/12/04 08:58:05;;;;;;;22.73;16.25;;;3.70;99.90;;;;;;4987543;28;20030;-47
2021/12/04 09:00:40;;;;;;;22.80;16.10;;;3.70;99.90;;;;;;4987349;28;20101;-50
2021/12/04 09:03:08;;;;;;;23.85;16.75;;;3.70;99.90;;;;;;4988831;28;20038;-51
2021/12/04 09:05:36;;;;;;;23.63;16.13;;;3.70;99.90;;;;;;4988773;28;20096;-50
2021/12/04 09:08:04;;;;;;;24.02;16.67;;;3.80;99.90;;;;;;4988439;28;20062;-49
2021/12/04 09:10:29;;;;;;;24.27;15.52;;;3.70;99.90;;;;;;4988855;28;20038;-48
2021/12/04 09:12:55;;;;;;;21.55;15.10;;;3.70;99.90;;;;;;4988841;28;20054;-48
2021/12/04 09:15:24;;;;;;;23.60;16.50;;;3.80;99.90;;;;;;4988445;28;20031;-50
2021/12/04 09:17:50;;;;;;;19.88;14.70;;;3.80;99.90;;;;;;4988529;28;20179;-49
2021/12/04 09:20:17;;;;;;;20.15;14.52;;;3.80;99.90;;;;;;4988165;28;20027;-48
2021/12/04 09:22:46;;;;;;;27.20;14.90;;;3.80;99.90;;;;;;4988741;28;20494;-51
2021/12/04 09:25:21;;;;;;;22.13;15.02;;;3.80;99.90;;;;;;4988382;28;20038;-48
2021/12/04 09:28:00;;;;;;;21.67;14.70;;;3.80;99.90;;;;;;4988697;28;20037;-49
2021/12/04 10:19:30;;;;;;;22.17;15.55;;;4.20;99.90;;;;;;4991035;28;20061;-55
2021/12/04 10:22:11;;;;;;;17.92;12.75;;;4.20;99.90;;;;;;4991211;28;20065;-50
2021/12/04 10:33:15;;;;;;;23.20;16.23;;;4.30;99.90;;;;;;4990762;28;20068;-56
2021/12/04 10:35:42;;;;;;;22.05;15.25;;;4.30;99.90;;;;;;4991448;28;20085;-51
2021/12/04 10:38:14;;;;;;;24.75;16.63;;;4.30;99.90;;;;;;4990852;28;20383;-52
2021/12/04 10:40:42;;;;;;;23.20;15.77;;;4.30;99.90;;;;;;4991291;28;20053;-52
2021/12/04 10:43:14;;;;;;;19.42;14.98;;;4.30;99.90;;;;;;4991371;28;20093;-54
2021/12/04 10:45:53;;;;;;;21.10;15.90;;;4.30;99.90;;;;;;4990200;28;20030;-57
2021/12/04 10:48:23;;;;;;;23.55;16.25;;;4.30;99.90;;;;;;4989532;28;20030;-53
2021/12/04 10:51:10;;;;;;;23.73;15.77;;;4.30;99.90;;;;;;4991433;28;20101;-56
2021/12/04 10:53:47;;;;;;;20.38;15.35;;;4.30;99.90;;;;;;4991508;28;20099;-54
2021/12/04 11:29:00;;;;;;;20.70;14.93;;;4.20;99.90;;;;;;5007740;28;20796;-52
2021/12/04 11:37:05;;;;;;;13.57;10.90;;;4.20;99.90;;;;;;4970425;28;20037;-53
2021/12/04 11:39:44;;;;;;;21.65;14.02;;;4.20;99.90;;;;;;4980553;28;20147;-55
2021/12/04 11:42:24;;;;;;;17.40;13.35;;;4.20;99.90;;;;;;5005029;28;20448;-52
2021/12/04 11:44:58;;;;;;;18.50;13.20;;;4.20;99.90;;;;;;5007971;28;20034;-54
2021/12/04 11:47:34;;;;;;;17.70;12.35;;;4.20;99.90;;;;;;5009298;28;20084;-51
2021/12/04 11:50:00;;;;;;;13.82;11.07;;;4.20;99.90;;;;;;5004191;28;20058;-50
2021/12/04 11:52:25;;;;;;;17.27;11.98;;;4.20;99.90;;;;;;4989735;28;20572;-56
2021/12/04 11:54:57;;;;;;;15.63;11.65;;;4.20;99.90;;;;;;4993862;28;20071;-51
2021/12/04 11:57:35;;;;;;;16.20;11.20;;;4.20;99.90;;;;;;5007889;28;20065;-51
2021/12/04 12:00:28;;;;;;;15.90;11.35;;;4.20;99.90;;;;;;5007105;28;20101;-51
2021/12/04 12:03:15;;;;;;;16.73;12.15;;;4.20;99.90;;;;;;4994844;28;20026;-49
2021/12/04 12:05:51;;;;;;;19.85;12.60;;;4.30;99.90;;;;;;4989290;28;20033;-54
2021/12/04 12:08:23;;;;;;;14.45;11.18;;;4.30;99.90;;;;;;4988596;28;20114;-53
2021/12/04 12:10:52;;;;;;;15.15;11.38;;;4.30;99.90;;;;;;4988042;28;20503;-53
2021/12/04 12:13:46;;;;;;;16.15;11.77;;;4.30;99.90;;;;;;4987741;28;20027;-57
2021/12/04 12:16:15;;;;;;;15.05;11.80;;;4.30;99.90;;;;;;4988330;28;20041;-55
2021/12/04 12:18:51;;;;;;;17.95;11.65;;;4.40;99.90;;;;;;4988741;28;20022;-52
2021/12/04 12:21:22;;;;;;;14.02;10.55;;;4.40;99.90;;;;;;4989138;28;20392;-55
2021/12/04 12:27:00;;;;;;;12.80;10.23;;;4.50;99.90;;;;;;4989095;28;20037;-54
2021/12/04 12:38:32;;;;;;;13.77;9.35;;;4.50;99.90;;;;;;4989208;28;20313;-51
2021/12/04 12:41:03;;;;;;;12.73;10.00;;;4.50;99.90;;;;;;4989486;28;20022;-48
2021/12/04 12:43:45;;;;;;;11.57;9.70;;;4.50;99.90;;;;;;4979226;28;20030;-55
2021/12/04 12:46:11;;;;;;;12.27;8.60;;;4.50;99.90;;;;;;4989106;28;20053;-56
2021/12/04 12:48:54;;;;;;;12.68;8.93;;;4.50;99.90;;;;;;4987232;28;20058;-55
2021/12/04 12:51:31;;;;;;;12.32;8.40;;;4.40;99.90;;;;;;4988765;28;20044;-52
2021/12/04 12:53:59;;;;;;;11.50;8.45;;;4.40;99.90;;;;;;4989102;28;20182;-52
2021/12/04 12:56:30;;;;;;;15.40;9.73;;;4.40;99.90;;;;;;4988294;28;20036;-55
2021/12/04 12:59:05;;;;;;;15.48;11.43;;;4.40;99.90;;;;;;4988620;28;20089;-53
2021/12/04 13:13:34;;;;;;;17.13;11.88;;;4.20;99.90;;;;;;4991809;28;20456;-56
2021/12/04 13:16:21;;;;;;;16.27;11.68;;;4.20;99.90;;;;;;4992782;28;20033;-51
2021/12/04 13:18:59;;;;;;;15.52;12.20;;;4.20;99.90;;;;;;4992732;28;20026;-55
2021/12/04 13:21:25;;;;;;;14.48;10.95;;;4.20;99.90;;;;;;4992385;28;20042;-55
2021/12/04 13:23:55;;;;;;;16.88;11.73;;;4.20;99.90;;;;;;4992023;28;20026;-53
2021/12/04 13:26:33;;;;;;;16.00;11.55;;;4.20;99.90;;;;;;4992300;28;20104;-54
2021/12/04 13:29:00;;;;;;;15.48;12.10;;;4.20;99.90;;;;;;4987220;28;20049;-54
2021/12/04 13:31:28;;;;;;;16.52;11.77;;;4.10;99.90;;;;;;4989023;28;20026;-56
2021/12/04 13:33:54;;;;;;;16.17;12.27;;;4.10;99.90;;;;;;4984610;28;20029;-54
2021/12/04 13:36:26;;;;;;;15.02;11.57;;;4.10;99.90;;;;;;4990378;28;20023;-52
2021/12/04 13:39:01;;;;;;;17.88;12.25;;;4.20;99.90;;;;;;4991615;28;20117;-51
2021/12/04 13:41:29;;;;;;;15.23;11.52;;;4.20;99.90;;;;;;4991530;28;20665;-56
2021/12/04 13:43:56;;;;;;;16.80;12.27;;;4.10;99.90;;;;;;4992022;28;20030;-50
2021/12/04 13:46:23;;;;;;;15.60;11.82;;;4.10;99.90;;;;;;4990556;28;20033;-48
2021/12/04 13:48:49;;;;;;;15.93;11.73;;;4.10;99.90;;;;;;4991165;28;20022;-55
2021/12/04 13:51:15;;;;;;;17.42;11.38;;;4.10;99.90;;;;;;4991868;28;20089;-56
2021/12/04 13:53:44;;;;;;;17.95;12.55;;;4.10;99.90;;;;;;4992054;28;20073;-48
2021/12/04 13:56:14;;;;;;;16.95;11.90;;;4.10;99.90;;;;;;4992045;28;20041;-52
2021/12/04 13:58:48;;;;;;;19.92;12.68;;;4.10;99.90;;;;;;4992027;28;20431;-50
2021/12/04 14:01:15;;;;;;;16.38;11.55;;;4.10;99.90;;;;;;4991412;28;20038;-54
2021/12/04 14:03:41;;;;;;;16.75;11.68;;;4.00;99.90;;;;;;4991490;28;20026;-51
2021/12/04 14:06:15;;;;;;;15.23;11.82;;;4.10;99.90;;;;;;4991785;28;20026;-53
2021/12/04 14:08:42;;;;;;;17.42;11.15;;;4.00;99.90;;;;;;4991613;28;20050;-49
2021/12/04 14:11:07;;;;;;;14.75;9.82;;;4.00;99.90;;;;;;4991114;28;20030;-55
2021/12/04 14:13:36;;;;;;;15.93;10.75;;;4.00;99.90;;;;;;4991269;28;20435;-49
2021/12/04 14:16:02;;;;;;;16.17;10.77;;;4.00;99.90;;;;;;4991572;28;20413;-56
2021/12/04 14:18:29;;;;;;;15.60;11.25;;;4.00;99.90;;;;;;4989597;28;20027;-50
2021/12/04 14:21:00;;;;;;;15.23;10.13;;;4.00;99.90;;;;;;4990512;28;20022;-53
2021/12/04 14:23:28;;;;;;;11.93;9.57;;;4.00;99.90;;;;;;4991472;28;20494;-51
2021/12/04 14:25:54;;;;;;;12.73;9.57;;;3.90;99.90;;;;;;4991139;28;20026;-51
2021/12/04 14:28:22;;;;;;;12.80;9.25;;;4.00;99.90;;;;;;4990545;28;20030;-56
2021/12/04 14:30:48;;;;;;;13.07;8.80;;;3.90;99.90;;;;;;4991750;28;20030;-49
2021/12/04 14:33:20;;;;;;;11.10;8.52;;;3.90;99.90;;;;;;4989226;28;20049;-55
2021/12/04 14:35:49;;;;;;;11.85;9.25;;;3.90;99.90;;;;;;4991381;28;20026;-53
2021/12/04 14:38:18;;;;;;;10.50;8.70;;;3.90;99.90;;;;;;4990763;28;20030;-53
2021/12/04 14:40:50;;;;;;;10.93;8.75;;;3.90;99.90;;;;;;4990884;28;20117;-53
2021/12/04 14:43:19;;;;;;;11.50;8.10;;;3.90;99.90;;;;;;4990529;28;20532;-52
2021/12/04 14:45:50;;;;;;;12.50;8.35;;;3.90;99.90;;;;;;4990818;28;20042;-49
2021/12/04 14:48:24;;;;;;;11.43;8.32;;;3.90;99.90;;;;;;4989912;28;20499;-50
2021/12/04 14:51:02;;;;;;;9.48;7.75;;;3.90;99.90;;;;;;4990142;28;20044;-54
2021/12/04 14:53:28;;;;;;;10.27;7.88;;;3.90;99.90;;;;;;4990547;28;20037;-53
2021/12/04 14:55:55;;;;;;;12.85;8.57;;;3.80;99.90;;;;;;4990789;28;20022;-54
2021/12/04 14:58:24;;;;;;;12.73;8.52;;;3.80;99.90;;;;;;4990177;28;20093;-54
2021/12/04 15:00:49;;;;;;;13.02;9.05;;;3.80;99.90;;;;;;4972820;28;20493;-54
2021/12/04 15:03:29;;;;;;;11.80;9.43;;;3.80;99.90;;;;;;4989367;28;20034;-56
2021/12/04 15:05:58;;;;;;;13.20;9.57;;;3.80;99.90;;;;;;4990410;28;20039;-56
2021/12/04 15:08:30;;;;;;;13.55;9.93;;;3.80;99.90;;;;;;4990147;28;20113;-51
2021/12/04 15:10:59;;;;;;;16.48;10.52;;;3.80;99.90;;;;;;4990479;28;20023;-55
2021/12/04 15:13:29;;;;;;;14.57;10.77;;;3.80;99.90;;;;;;4988614;28;20026;-51
2021/12/04 15:15:58;;;;;;;14.43;10.52;;;3.80;99.90;;;;;;4990559;28;20018;-52
2021/12/04 15:18:29;;;;;;;17.70;12.57;;;3.70;99.90;;;;;;4989529;28;20045;-55
2021/12/04 15:21:01;;;;;;;18.98;11.10;;;3.80;99.90;;;;;;4988616;28;20030;-55
2021/12/04 15:23:29;;;;;;;18.00;11.32;;;3.70;99.90;;;;;;4990149;28;20486;-51
2021/12/04 15:25:58;;;;;;;17.45;11.68;;;3.70;99.90;;;;;;4989932;28;20040;-54
2021/12/04 15:28:28;;;;;;;16.83;10.75;;;3.80;99.90;;;;;;4989536;28;20038;-56
2021/12/04 15:31:01;;;;;;;16.60;11.63;;;3.70;99.90;;;;;;4972133;28;20126;-56
2021/12/04 15:33:35;;;;;;;14.65;10.70;;;3.70;99.90;;;;;;4989658;28;20038;-53
2021/12/04 15:36:01;;;;;;;15.27;11.27;;;3.70;99.90;;;;;;4988743;28;20117;-56
2021/12/04 15:38:44;;;;;;;14.85;10.15;;;3.70;99.90;;;;;;4989669;28;20034;-52
2021/12/04 15:44:05;;;;;;;13.80;9.68;;;3.70;99.90;;;;;;4989188;28;20057;-53
2021/12/04 15:54:38;;;;;;;14.05;8.80;;;3.70;99.90;;;;;;4988991;28;20037;-57
2021/12/04 15:57:11;;;;;;;14.02;9.93;;;3.70;99.90;;;;;;4989504;28;20038;-51
2021/12/04 15:59:42;;;;;;;14.88;9.88;;;3.70;99.90;;;;;;4988771;28;20021;-49